createdAt,value
2019-05-30T00:00:30.344Z,42.45
2019-05-30T00:05:26.463Z,42.63
2019-05-30T00:10:22.401Z,42.50
2019-05-30T00:15:18.334Z,42.20
2019-05-30T00:20:14.421Z,42.69
2019-05-30T00:25:10.753Z,42.94
2019-05-30T00:30:23.315Z,42.44
2019-05-30T00:35:07.568Z,42.50
2019-05-30T00:40:07.869Z,42.54
2019-05-30T00:45:19.624Z,42.42
2019-05-30T00:50:04.479Z,42.65
2019-05-30T00:55:00.692Z,42.94
2019-05-30T00:59:56.722Z,42.76
2019-05-30T01:04:52.647Z,42.78
2019-05-30T01:09:48.576Z,42.76
2019-05-30T01:14:44.502Z,43.43
2019-05-30T01:19:40.427Z,43.11
2019-05-30T01:24:36.353Z,43.76
2019-05-30T01:29:32.276Z,44.09
2019-05-30T01:34:28.201Z,44.84
2019-05-30T01:39:24.771Z,44.36
2019-05-30T01:44:20.666Z,45.32
2019-05-30T01:49:16.604Z,45.75
2019-05-30T01:54:12.640Z,46.05
2019-05-30T01:59:08.936Z,46.17
2019-05-30T02:04:05.237Z,46.08
2019-05-30T02:09:11.943Z,46.30
2019-05-30T02:14:07.888Z,46.34
2019-05-30T02:19:03.827Z,46.92
2019-05-30T02:23:59.890Z,45.39
2019-05-30T02:28:55.817Z,46.45
2019-05-30T02:33:51.739Z,46.82
2019-05-30T02:38:51.617Z,47.12
2019-05-30T02:43:47.653Z,47.06
2019-05-30T02:48:58.414Z,46.20
2019-05-30T02:53:41.536Z,45.94
2019-05-30T02:58:37.498Z,45.60
2019-05-30T03:03:33.416Z,45.84
2019-05-30T03:08:29.454Z,45.32
2019-05-30T03:13:25.488Z,45.55
2019-05-30T03:18:21.511Z,45.67
2019-05-30T03:23:17.625Z,45.83
2019-05-30T03:28:13.867Z,45.99
2019-05-30T03:33:32.919Z,46.27
2019-05-30T03:38:08.820Z,46.23
2019-05-30T03:43:06.733Z,46.41
2019-05-30T03:48:06.572Z,46.21
2019-05-30T03:53:04.394Z,46.61
2019-05-30T03:58:12.244Z,46.70
2019-05-30T04:03:26.632Z,46.48
2019-05-30T04:08:24.726Z,46.65
2019-05-30T04:13:39.270Z,46.83
2019-05-30T04:18:35.213Z,47.05
2019-05-30T04:23:31.147Z,46.91
2019-05-30T04:28:27.083Z,47.06
2019-05-30T04:33:32.480Z,46.89
2019-05-30T04:38:22.529Z,46.58
2019-05-30T04:43:20.208Z,46.37
2019-05-30T04:48:18.345Z,46.13
2019-05-30T04:53:16.215Z,46.60
2019-05-30T04:58:13.344Z,46.82
2019-05-30T05:03:11.297Z,46.41
2019-05-30T05:08:07.808Z,46.25
2019-05-30T05:13:03.743Z,45.75
2019-05-30T05:17:59.671Z,45.31
2019-05-30T05:22:55.602Z,44.60
2019-05-30T05:27:51.535Z,44.57
2019-05-30T05:32:47.454Z,44.34
2019-05-30T05:37:43.383Z,43.54
2019-05-30T05:42:39.342Z,43.09
2019-05-30T05:47:35.269Z,42.69
2019-05-30T05:52:31.994Z,42.29
2019-05-30T05:57:29.103Z,42.09
2019-05-30T06:02:25.261Z,41.83
2019-05-30T06:07:22.295Z,41.58
2019-05-30T06:12:19.437Z,41.33
2019-05-30T06:17:16.862Z,41.21
2019-05-30T06:22:13.168Z,41.05
2019-05-30T06:27:09.098Z,40.62
2019-05-30T06:32:05.121Z,40.43
2019-05-30T06:37:01.049Z,40.36
2019-05-30T06:41:56.978Z,40.29
2019-05-30T06:46:52.902Z,39.62
2019-05-30T06:51:48.838Z,40.40
2019-05-30T06:56:44.993Z,39.57
2019-05-30T07:01:40.893Z,39.90
2019-05-30T07:06:37.269Z,39.23
2019-05-30T07:11:33.748Z,39.27
2019-05-30T07:16:29.674Z,39.74
2019-05-30T07:21:25.605Z,39.95
2019-05-30T07:26:21.628Z,40.05
2019-05-30T07:31:17.559Z,40.59
2019-05-30T07:36:13.492Z,41.64
2019-05-30T07:41:09.421Z,42.12
2019-05-30T07:46:05.346Z,41.42
2019-05-30T07:51:01.274Z,41.07
2019-05-30T07:55:57.206Z,41.19
2019-05-30T08:00:53.139Z,40.51
2019-05-30T08:05:49.070Z,40.41
2019-05-30T08:10:47.328Z,39.75
2019-05-30T08:15:44.547Z,40.06
2019-05-30T08:20:40.573Z,40.22
2019-05-30T08:25:36.641Z,40.07
2019-05-30T08:30:32.726Z,41.57
2019-05-30T08:35:39.075Z,42.47
2019-05-30T08:40:26.813Z,43.17
2019-05-30T08:45:23.060Z,44.45
2019-05-30T08:50:20.903Z,42.87
2019-05-30T08:55:16.946Z,42.50
2019-05-30T09:00:14.092Z,42.17
2019-05-30T09:05:10.224Z,41.36
2019-05-30T09:10:09.046Z,41.25
2019-05-30T09:15:09.852Z,41.00
2019-05-30T09:20:08.098Z,41.10
2019-05-30T09:25:06.923Z,40.19
2019-05-30T09:30:07.169Z,40.01
2019-05-30T09:35:05.190Z,39.09
2019-05-30T09:40:03.079Z,39.71
2019-05-30T09:44:58.985Z,39.58
2019-05-30T09:49:54.913Z,40.32
2019-05-30T09:54:50.847Z,39.97
2019-05-30T09:59:48.555Z,40.26
2019-05-30T10:04:45.769Z,39.74
2019-05-30T10:09:44.498Z,39.59
2019-05-30T10:14:41.376Z,40.06
2019-05-30T10:19:37.304Z,40.42
2019-05-30T10:24:33.234Z,40.87
2019-05-30T10:29:29.162Z,41.67
2019-05-30T10:34:25.096Z,41.39
2019-05-30T10:39:24.186Z,41.84
2019-05-30T10:44:20.206Z,41.79
2019-05-30T10:49:16.236Z,42.57
2019-05-30T10:54:12.237Z,41.43
2019-05-30T10:59:08.167Z,42.02
2019-05-30T11:04:05.123Z,43.22
2019-05-30T11:09:08.201Z,43.82
2019-05-30T11:14:06.923Z,42.91
2019-05-30T11:19:07.728Z,43.21
2019-05-30T11:24:03.436Z,43.38
2019-05-30T11:28:59.382Z,44.02
2019-05-30T11:33:57.114Z,44.18
2019-05-30T11:38:59.789Z,44.40
2019-05-30T11:43:57.801Z,44.28
2019-05-30T11:48:55.662Z,44.02
2019-05-30T11:53:53.725Z,44.39
2019-05-30T11:58:49.961Z,43.80
2019-05-30T12:03:45.902Z,44.40
2019-05-30T12:08:50.612Z,44.94
2019-05-30T12:13:46.874Z,44.97
2019-05-30T12:18:42.811Z,45.04
2019-05-30T12:23:38.769Z,44.52
2019-05-30T12:28:34.680Z,44.04
2019-05-30T12:33:30.607Z,44.04
2019-05-30T12:38:27.983Z,43.63
2019-05-30T12:43:24.141Z,43.45
2019-05-30T12:48:20.091Z,43.87
2019-05-30T12:53:16.040Z,44.03
2019-05-30T12:58:11.976Z,44.31
2019-05-30T13:03:07.898Z,44.65
2019-05-30T13:08:17.973Z,44.38
2019-05-30T13:13:02.410Z,44.32
2019-05-30T13:17:58.825Z,45.13
2019-05-30T13:22:56.191Z,44.38
2019-05-30T13:27:52.817Z,44.05
2019-05-30T13:32:49.479Z,44.99
2019-05-30T13:37:46.587Z,45.24
2019-05-30T13:42:52.265Z,44.49
2019-05-30T13:47:51.847Z,45.18
2019-05-30T13:52:50.307Z,45.56
2019-05-30T13:57:53.293Z,45.75
2019-05-30T14:02:53.564Z,45.52
2019-05-30T14:07:50.155Z,45.29
2019-05-30T14:12:46.250Z,45.25
2019-05-30T14:17:42.194Z,45.51
2019-05-30T14:22:38.218Z,45.33
2019-05-30T14:27:34.163Z,45.98
2019-05-30T14:32:30.088Z,45.92
2019-05-30T14:37:26.072Z,45.99
2019-05-30T14:42:22.003Z,45.91
2019-05-30T14:47:18.814Z,45.78
2019-05-30T14:52:14.815Z,46.39
2019-05-30T14:57:11.521Z,47.12
2019-05-30T15:02:07.583Z,46.94
2019-05-30T15:07:05.283Z,46.58
2019-05-30T15:12:01.526Z,46.40
2019-05-30T15:16:57.555Z,46.59
2019-05-30T15:21:53.682Z,46.84
2019-05-30T15:26:49.739Z,46.72
2019-05-30T15:31:48.604Z,47.42
2019-05-30T15:36:48.711Z,47.12
2019-05-30T15:41:45.676Z,47.26
2019-05-30T15:46:41.993Z,47.54
2019-05-30T15:51:37.976Z,47.24
2019-05-30T15:56:33.939Z,47.12
2019-05-30T16:01:30.938Z,47.41
2019-05-30T16:06:27.202Z,47.41
2019-05-30T16:11:23.667Z,47.50
2019-05-30T16:16:36.607Z,47.41
2019-05-30T16:21:18.594Z,47.48
2019-05-30T16:26:17.551Z,47.77
2019-05-30T16:31:13.876Z,48.02
2019-05-30T16:36:10.187Z,47.88
2019-05-30T16:41:10.692Z,48.07
2019-05-30T16:46:07.217Z,47.46
2019-05-30T16:51:04.071Z,47.89
2019-05-30T16:56:00.784Z,48.07
2019-05-30T17:00:57.643Z,47.88
2019-05-30T17:05:54.017Z,46.90
2019-05-30T17:10:50.960Z,45.75
2019-05-30T17:15:52.704Z,46.34
2019-05-30T17:20:48.634Z,45.74
2019-05-30T17:25:44.556Z,46.24
2019-05-30T17:30:40.651Z,46.77
2019-05-30T17:35:36.580Z,46.53
2019-05-30T17:40:44.235Z,46.53
2019-05-30T17:45:30.574Z,46.29
2019-05-30T17:50:27.854Z,46.27
2019-05-30T17:55:24.541Z,46.83
2019-05-30T18:00:20.802Z,47.03
2019-05-30T18:05:16.937Z,46.58
2019-05-30T18:10:13.691Z,42.87
2019-05-30T18:15:11.865Z,38.44
2019-05-30T18:20:08.691Z,38.21
2019-05-30T18:25:05.521Z,38.64
2019-05-30T18:30:02.160Z,38.86
2019-05-30T18:34:58.083Z,40.79
2019-05-30T18:39:54.009Z,42.14
2019-05-30T18:44:49.939Z,44.26
2019-05-30T18:49:45.880Z,45.68
2019-05-30T18:54:41.821Z,47.05
2019-05-30T18:59:37.740Z,48.15
2019-05-30T19:04:33.744Z,48.72
2019-05-30T19:09:31.974Z,48.85
2019-05-30T19:14:31.303Z,49.35
2019-05-30T19:19:27.585Z,50.21
2019-05-30T19:24:23.660Z,50.74
2019-05-30T19:29:19.623Z,51.66
2019-05-30T19:34:15.522Z,52.14
2019-05-30T19:39:12.129Z,52.41
2019-05-30T19:44:08.020Z,52.81
2019-05-30T19:49:03.957Z,53.22
2019-05-30T19:53:59.857Z,53.40
2019-05-30T19:58:55.786Z,53.60
2019-05-30T20:03:51.724Z,53.88
2019-05-30T20:08:55.401Z,54.29
2019-05-30T20:13:46.925Z,54.74
2019-05-30T20:18:42.848Z,55.16
2019-05-30T20:23:50.327Z,55.49
2019-05-30T20:28:36.770Z,55.78
2019-05-30T20:33:32.736Z,55.86
2019-05-30T20:38:28.973Z,56.15
2019-05-30T20:43:24.897Z,56.38
2019-05-30T20:48:20.856Z,56.59
2019-05-30T20:53:20.297Z,56.90
2019-05-30T20:58:14.721Z,56.95
2019-05-30T21:03:12.392Z,57.01
2019-05-30T21:08:08.424Z,57.44
2019-05-30T21:13:04.446Z,57.41
2019-05-30T21:18:02.376Z,57.67
2019-05-30T21:22:58.301Z,57.77
2019-05-30T21:27:54.237Z,57.88
2019-05-30T21:32:50.357Z,57.81
2019-05-30T21:37:46.405Z,58.07
2019-05-30T21:42:58.345Z,58.16
2019-05-30T21:47:40.763Z,57.83
2019-05-30T21:52:36.915Z,58.27
2019-05-30T21:57:32.839Z,58.27
2019-05-30T22:02:28.798Z,58.37
2019-05-30T22:07:24.729Z,58.44
2019-05-30T22:12:20.665Z,58.47
2019-05-30T22:17:16.589Z,58.40
2019-05-30T22:22:12.528Z,58.50
2019-05-30T22:27:08.554Z,58.66
2019-05-30T22:32:04.482Z,58.44
2019-05-30T22:37:00.417Z,58.30
2019-05-30T22:41:56.461Z,58.21
2019-05-30T22:46:52.468Z,58.23
2019-05-30T22:51:48.984Z,58.35
2019-05-30T22:56:45.460Z,58.39
2019-05-30T23:01:41.477Z,58.46
2019-05-30T23:06:37.405Z,58.25
2019-05-30T23:11:33.346Z,58.28
2019-05-30T23:16:29.246Z,58.28
2019-05-30T23:21:25.269Z,58.21
2019-05-30T23:26:21.202Z,58.37
2019-05-30T23:31:17.128Z,58.42
2019-05-30T23:36:13.158Z,58.49
2019-05-30T23:41:09.086Z,58.58
2019-05-30T23:46:05.013Z,58.62
2019-05-30T23:51:00.950Z,58.45
2019-05-30T23:55:57.008Z,58.42
